createdAt,value
2022-10-01T17:06:11.134Z,4.27
2022-10-01T17:08:39.451Z,4.10
2022-10-01T17:11:11.924Z,3.80
2022-10-01T17:13:41.215Z,3.85
2022-10-01T17:16:10.574Z,3.90
2022-10-01T17:18:39.780Z,3.88
2022-10-01T17:21:10.354Z,4.00
2022-10-01T17:23:38.965Z,4.43
2022-10-01T17:26:08.594Z,4.40
2022-10-01T17:28:37.351Z,5.07
2022-10-01T17:31:08.843Z,4.30
2022-10-01T17:33:37.480Z,4.75
2022-10-01T17:36:08.989Z,4.65
2022-10-01T17:38:37.871Z,4.10
2022-10-01T17:41:06.186Z,4.00
2022-10-01T17:43:34.516Z,4.47
2022-10-01T17:46:03.266Z,3.60
2022-10-01T17:48:31.727Z,3.72
2022-10-01T17:51:09.074Z,3.88
2022-10-01T17:53:42.538Z,4.30
2022-10-01T17:56:16.610Z,4.28
2022-10-01T17:58:46.066Z,4.10
2022-10-01T18:01:17.645Z,4.47
2022-10-01T18:03:46.179Z,4.35
2022-10-01T18:06:16.050Z,4.35
2022-10-01T18:08:55.211Z,4.07
2022-10-01T18:11:26.387Z,4.22
2022-10-01T18:13:54.806Z,4.30
2022-10-01T18:16:26.353Z,4.00
2022-10-01T18:21:47.570Z,4.82
2022-10-01T18:24:17.281Z,4.75
2022-10-01T18:26:46.746Z,4.20
2022-10-01T18:29:22.519Z,4.20
2022-10-01T18:32:14.194Z,4.07
2022-10-01T18:34:59.961Z,4.32
2022-10-01T18:37:40.536Z,4.22
2022-10-01T18:40:17.546Z,4.68
2022-10-01T18:43:16.914Z,4.45
2022-10-01T18:46:02.573Z,4.30
2022-10-01T18:48:58.530Z,4.20
2022-10-01T18:51:54.685Z,4.43
2022-10-01T18:54:35.466Z,4.32
2022-10-01T18:57:30.550Z,4.82
2022-10-01T19:00:18.520Z,4.05
2022-10-01T19:02:58.675Z,3.33
2022-10-01T19:05:53.071Z,4.20
2022-10-01T19:08:39.970Z,3.65
2022-10-01T19:11:26.830Z,4.40
2022-10-01T19:14:27.001Z,3.80
2022-10-01T19:17:42.367Z,4.03
2022-10-01T19:20:28.455Z,3.88
2022-10-01T19:23:44.081Z,4.00
2022-10-01T19:26:22.840Z,3.80
2022-10-01T19:29:05.405Z,3.53
2022-10-01T19:31:40.729Z,3.53
2022-10-01T19:34:29.566Z,3.63
2022-10-01T19:37:04.874Z,3.25
2022-10-01T19:39:38.800Z,3.70
2022-10-01T19:42:21.721Z,3.85
2022-10-01T19:45:26.875Z,3.30
2022-10-01T19:48:31.806Z,3.30
2022-10-01T19:51:08.670Z,2.97
2022-10-01T19:53:41.057Z,4.10
2022-10-01T19:56:21.555Z,3.67
2022-10-01T19:58:50.149Z,3.33
2022-10-01T20:01:23.023Z,3.78
2022-10-01T20:04:03.474Z,4.13
2022-10-01T20:06:42.722Z,3.90
2022-10-01T20:09:30.325Z,3.40
2022-10-01T20:12:24.164Z,3.80
2022-10-01T20:15:10.688Z,2.88
2022-10-01T20:18:05.255Z,3.20
2022-10-01T20:20:45.089Z,3.65
2022-10-01T20:23:36.601Z,3.67
2022-10-01T20:26:40.760Z,3.47
2022-10-01T20:29:29.254Z,3.47
2022-10-01T20:32:11.001Z,4.05
2022-10-01T20:34:51.075Z,4.20
2022-10-01T20:37:41.558Z,4.68
2022-10-01T20:40:18.999Z,4.28
2022-10-01T20:42:52.245Z,4.40
2022-10-01T20:45:25.602Z,3.85
2022-10-01T20:48:01.390Z,4.53
2022-10-01T20:50:54.829Z,4.78
2022-10-01T20:53:47.129Z,5.13
2022-10-01T20:56:20.920Z,4.50
2022-10-01T20:58:58.360Z,4.78
2022-10-01T21:01:31.108Z,3.97
2022-10-01T21:04:22.360Z,4.85
2022-10-01T21:06:56.390Z,4.63
2022-10-01T21:09:39.154Z,4.85
2022-10-01T21:12:39.162Z,4.43
2022-10-01T21:15:13.735Z,4.25
2022-10-01T21:18:13.028Z,4.68
2022-10-01T21:21:32.279Z,4.78
2022-10-01T21:24:20.159Z,4.15
2022-10-01T21:27:13.086Z,4.30
2022-10-01T21:30:17.406Z,4.00
2022-10-01T21:33:17.055Z,4.32
2022-10-01T21:36:24.448Z,4.03
2022-10-01T21:39:01.085Z,3.85
2022-10-01T21:41:41.142Z,3.80
2022-10-01T21:44:15.158Z,3.40
2022-10-01T21:46:57.558Z,3.53
2022-10-01T21:49:40.765Z,3.65
2022-10-01T21:52:24.868Z,3.40
2022-10-01T21:55:20.740Z,3.60
2022-10-01T21:58:06.909Z,3.70
2022-10-01T22:00:35.221Z,3.45
2022-10-01T22:03:27.475Z,3.40
2022-10-01T22:06:12.966Z,3.38
2022-10-01T22:08:59.315Z,2.80
2022-10-01T22:11:32.928Z,3.53
2022-10-01T22:14:05.112Z,2.80
2022-10-01T22:16:48.348Z,3.05
2022-10-01T22:19:27.789Z,3.17
2022-10-01T22:22:19.145Z,2.80
2022-10-01T22:24:54.329Z,2.22
2022-10-01T22:27:34.521Z,2.35
2022-10-01T22:30:09.400Z,1.98
2022-10-01T22:33:06.687Z,2.10
2022-10-01T22:35:46.996Z,2.30
2022-10-01T22:38:40.607Z,2.10
2022-10-01T22:41:12.917Z,2.20
2022-10-01T22:43:44.109Z,2.53
2022-10-01T22:46:27.359Z,2.00
2022-10-01T22:49:06.354Z,2.30
2022-10-01T22:51:55.965Z,2.00
2022-10-01T22:55:03.795Z,2.22
2022-10-01T22:58:10.445Z,2.15
2022-10-01T23:01:04.917Z,2.00
2022-10-01T23:03:54.326Z,1.90
2022-10-01T23:06:43.326Z,1.88
2022-10-01T23:09:29.070Z,1.80
2022-10-01T23:12:09.235Z,1.60
2022-10-01T23:15:08.763Z,1.67
2022-10-01T23:17:55.177Z,1.98
2022-10-01T23:20:48.084Z,1.90
2022-10-01T23:23:33.080Z,1.95
2022-10-01T23:26:18.365Z,1.85
2022-10-01T23:29:04.116Z,1.65
2022-10-01T23:31:35.207Z,1.70
2022-10-01T23:34:03.471Z,1.80
2022-10-01T23:37:02.035Z,1.77
2022-10-01T23:39:57.455Z,2.13
2022-10-01T23:42:36.430Z,1.75
2022-10-01T23:45:21.178Z,1.90
2022-10-01T23:48:05.368Z,1.23
2022-10-01T23:50:43.357Z,1.63
2022-10-01T23:53:16.280Z,1.73
2022-10-01T23:56:18.845Z,1.48
2022-10-01T23:59:10.517Z,1.42
